Delta Virtual Airport Information Service

Oklahoma City Will Rogers World Airport

ICAO: KOKC Country: United States
Latitude: 35.3931 Longitude: -97.6007
Latest Arrival : FDX347 (3A) (KMEM-KOKC) Latest Departure : SWA200 (A) (KOKC-KHOU)


WX CaptureLIVE
Data provided by noaa.gov | Fetched at 14:48:27

METAR : KOKC 151852Z 05009KT 10SM FEW030 BKN250 32/23 A3002 RMK AO2 SLP148 T03220233

TAF : KOKC 151744Z 1518/1618 09007KT P6SM SCT035 BKN150 PROB30 1609/1615 VRB15G25KT 5SM TSRA OVC025CB


Runway Data for KOKC
Data provided by openaviationdata.com

Runway ID Mag Var Hdg Length Elevation Surface ILS Freq ILS Id ILS Slope
13 7 128° 7801 ft 1295 ft Asphalt -- -- --
17L 7 172° 9817 ft 1295 ft Asphalt 110.9 IEXR 3
17R 7 172° 9816 ft 1295 ft Concrete 110.7 IOKC 3
18 7 172° 3083 ft 1295 ft Asphalt -- -- --
31 7 308° 7801 ft 1295 ft Asphalt -- -- --
35L 7 352° 9816 ft 1295 ft Concrete -- -- --
35R 7 352° 9817 ft 1295 ft Asphalt 110.9 IRGR 2
36 7 352° 3083 ft 1295 ft Asphalt -- -- --

Oklahoma City Will Rogers World Airport, United States
Use only for reference purposes



Not for navigational purposes.